createdAt,value
2023-03-18T00:00:15.101Z,559.00
2023-03-18T00:04:15.043Z,569.00
2023-03-18T00:08:15.020Z,553.00
2023-03-18T00:12:15.013Z,557.00
2023-03-18T00:16:15.003Z,546.00
2023-03-18T00:20:14.929Z,553.00
2023-03-18T00:24:14.931Z,550.00
2023-03-18T00:28:16.709Z,555.00
2023-03-18T00:32:14.842Z,536.00
2023-03-18T00:36:14.809Z,549.00
2023-03-18T00:40:14.721Z,546.00
2023-03-18T00:44:14.685Z,531.00
2023-03-18T00:48:14.688Z,540.00
2023-03-18T00:52:14.631Z,545.00
2023-03-18T00:56:14.621Z,532.00
2023-03-18T01:00:14.565Z,520.00
2023-03-18T01:04:14.520Z,536.00
2023-03-18T01:08:14.484Z,523.00
2023-03-18T01:12:14.450Z,541.00
2023-03-18T01:16:14.411Z,532.00
2023-03-18T01:20:14.373Z,548.00
2023-03-18T01:24:14.321Z,541.00
2023-03-18T01:28:14.283Z,528.00
2023-03-18T01:32:14.251Z,538.00
2023-03-18T01:36:14.218Z,541.00
2023-03-18T01:40:14.176Z,511.00
2023-03-18T01:44:14.153Z,516.00
2023-03-18T01:48:14.122Z,533.00
2023-03-18T01:52:14.090Z,525.00
2023-03-18T01:56:14.031Z,515.00
2023-03-18T02:00:14.005Z,525.00
2023-03-18T02:08:24.007Z,500.00
2023-03-18T02:12:23.911Z,503.00
2023-03-18T02:16:23.964Z,503.00
2023-03-18T02:20:23.838Z,504.00
2023-03-18T02:24:23.830Z,503.00
2023-03-18T02:28:23.778Z,505.00
2023-03-18T02:32:23.744Z,508.00
2023-03-18T02:36:23.720Z,518.00
2023-03-18T02:40:23.671Z,516.00
2023-03-18T02:44:23.625Z,515.00
2023-03-18T02:48:23.598Z,517.00
2023-03-18T02:52:23.552Z,516.00
2023-03-18T02:56:23.567Z,515.00
2023-03-18T03:00:23.627Z,507.00
2023-03-18T03:04:23.777Z,508.00
2023-03-18T03:08:23.753Z,508.00
2023-03-18T03:12:23.796Z,507.00
2023-03-18T03:16:23.909Z,507.00
2023-03-18T03:20:23.933Z,510.00
2023-03-18T03:24:24.020Z,505.00
2023-03-18T03:28:24.049Z,506.00
2023-03-18T03:32:24.143Z,506.00
2023-03-18T03:36:24.117Z,506.00
2023-03-18T03:40:24.229Z,503.00
2023-03-18T03:44:24.264Z,507.00
2023-03-18T03:48:24.314Z,506.00
2023-03-18T03:52:24.283Z,504.00
2023-03-18T03:56:24.321Z,507.00
2023-03-18T04:00:24.359Z,504.00
2023-03-18T04:04:24.452Z,505.00
2023-03-18T04:08:24.434Z,506.00
2023-03-18T04:12:24.412Z,504.00
2023-03-18T04:16:24.616Z,507.00
2023-03-18T04:20:24.664Z,506.00
2023-03-18T04:24:24.706Z,505.00
2023-03-18T04:28:24.711Z,507.00
2023-03-18T04:32:24.885Z,507.00
2023-03-18T04:36:24.863Z,504.00
2023-03-18T04:40:24.824Z,505.00
2023-03-18T04:44:24.836Z,503.00
2023-03-18T04:48:24.732Z,502.00
2023-03-18T04:52:24.704Z,503.00
2023-03-18T04:56:24.687Z,501.00
2023-03-18T05:00:24.635Z,502.00
2023-03-18T05:04:24.605Z,504.00
2023-03-18T05:08:24.820Z,513.00
2023-03-18T05:12:24.571Z,505.00
2023-03-18T05:16:24.494Z,507.00
2023-03-18T05:20:24.457Z,503.00
2023-03-18T05:24:24.395Z,506.00
2023-03-18T05:28:24.409Z,508.00
2023-03-18T05:32:24.360Z,507.00
2023-03-18T05:36:24.318Z,503.00
2023-03-18T05:40:24.295Z,502.00
2023-03-18T05:44:24.217Z,506.00
2023-03-18T05:48:24.211Z,508.00
2023-03-18T05:52:24.194Z,505.00
2023-03-18T05:56:24.139Z,502.00
2023-03-18T06:00:24.112Z,505.00
2023-03-18T06:04:24.150Z,504.00
2023-03-18T06:08:24.117Z,504.00
2023-03-18T06:12:24.085Z,505.00
2023-03-18T06:16:24.251Z,505.00
2023-03-18T06:20:24.044Z,505.00
2023-03-18T06:24:23.966Z,505.00
2023-03-18T06:28:23.990Z,506.00
2023-03-18T06:32:23.896Z,501.00
2023-03-18T06:36:23.891Z,505.00
2023-03-18T06:40:23.868Z,502.00
2023-03-18T06:44:23.783Z,508.00
2023-03-18T06:48:23.756Z,500.00
2023-03-18T06:52:23.725Z,504.00
2023-03-18T06:56:23.702Z,513.00
2023-03-18T07:00:23.665Z,508.00
2023-03-18T07:04:23.656Z,507.00
2023-03-18T07:08:23.590Z,516.00
2023-03-18T07:12:23.560Z,513.00
2023-03-18T07:16:23.560Z,508.00
2023-03-18T07:20:23.497Z,510.00
2023-03-18T07:24:23.434Z,503.00
2023-03-18T07:28:23.414Z,514.00
2023-03-18T07:32:23.351Z,518.00
2023-03-18T07:36:23.333Z,514.00
2023-03-18T07:40:23.292Z,519.00
2023-03-18T07:44:23.465Z,519.00
2023-03-18T07:48:23.431Z,528.00
2023-03-18T07:52:23.392Z,522.00
2023-03-18T07:56:23.346Z,519.00
2023-03-18T08:00:23.329Z,523.00
2023-03-18T08:04:23.476Z,518.00
2023-03-18T08:08:23.252Z,520.00
2023-03-18T08:12:23.207Z,516.00
2023-03-18T08:16:23.228Z,519.00
2023-03-18T08:20:23.283Z,517.00
2023-03-18T08:24:23.098Z,517.00
2023-03-18T08:28:23.048Z,518.00
2023-03-18T08:32:23.187Z,518.00
2023-03-18T08:36:23.381Z,509.00
2023-03-18T08:40:23.518Z,507.00
2023-03-18T08:44:23.697Z,511.00
2023-03-18T08:48:23.882Z,509.00
2023-03-18T08:52:24.091Z,510.00
2023-03-18T08:56:24.229Z,515.00
2023-03-18T09:00:24.361Z,509.00
2023-03-18T09:04:25.304Z,508.00
2023-03-18T09:08:24.625Z,509.00
2023-03-18T09:12:24.738Z,512.00
2023-03-18T09:16:24.897Z,509.00
2023-03-18T09:20:24.909Z,507.00
2023-03-18T09:24:25.006Z,509.00
2023-03-18T09:28:25.118Z,508.00
2023-03-18T09:32:25.132Z,512.00
2023-03-18T09:36:25.208Z,505.00
2023-03-18T09:40:25.256Z,514.00
2023-03-18T09:44:25.334Z,517.00
2023-03-18T09:48:25.282Z,509.00
2023-03-18T09:52:25.290Z,513.00
2023-03-18T09:56:25.282Z,517.00
2023-03-18T10:00:25.248Z,515.00
2023-03-18T10:04:25.372Z,513.00
2023-03-18T10:08:25.480Z,523.00
2023-03-18T10:12:25.684Z,514.00
2023-03-18T10:16:25.672Z,526.00
2023-03-18T10:20:25.617Z,522.00
2023-03-18T10:24:25.579Z,521.00
2023-03-18T10:28:25.547Z,520.00
2023-03-18T10:32:29.291Z,527.00
2023-03-18T10:36:26.496Z,526.00
2023-03-18T10:40:25.445Z,527.00
2023-03-18T10:44:25.475Z,530.00
2023-03-18T10:48:25.596Z,529.00
2023-03-18T10:52:25.686Z,529.00
2023-03-18T10:56:25.806Z,525.00
2023-03-18T11:00:25.884Z,528.00
2023-03-18T11:04:25.994Z,528.00
2023-03-18T11:08:25.998Z,533.00
2023-03-18T11:12:26.018Z,535.00
2023-03-18T11:16:26.165Z,534.00
2023-03-18T11:20:26.079Z,526.00
2023-03-18T11:24:26.086Z,531.00
2023-03-18T11:28:26.097Z,529.00
2023-03-18T11:32:26.169Z,535.00
2023-03-18T11:36:26.291Z,537.00
2023-03-18T11:40:26.450Z,541.00
2023-03-18T11:44:26.421Z,537.00
2023-03-18T11:48:26.391Z,536.00
2023-03-18T11:52:26.368Z,539.00
2023-03-18T11:56:26.333Z,543.00
2023-03-18T12:00:26.292Z,542.00
2023-03-18T12:04:26.249Z,538.00
2023-03-18T12:08:26.217Z,544.00
2023-03-18T12:12:26.146Z,542.00
2023-03-18T12:16:26.189Z,548.00
2023-03-18T12:20:26.103Z,549.00
2023-03-18T12:24:26.077Z,550.00
2023-03-18T12:28:26.039Z,544.00
2023-03-18T12:32:26.063Z,549.00
2023-03-18T12:36:26.201Z,549.00
2023-03-18T12:40:26.284Z,553.00
2023-03-18T12:44:26.407Z,548.00
2023-03-18T12:48:42.712Z,554.00
2023-03-18T12:52:27.489Z,554.00
2023-03-18T12:56:26.452Z,558.00
2023-03-18T13:00:26.507Z,551.00
2023-03-18T13:04:26.515Z,550.00
2023-03-18T13:08:26.600Z,552.00
2023-03-18T13:12:26.818Z,552.00
2023-03-18T13:16:26.868Z,554.00
2023-03-18T13:20:26.986Z,558.00
2023-03-18T13:24:27.127Z,557.00
2023-03-18T13:28:27.239Z,548.00
2023-03-18T13:32:27.344Z,555.00
2023-03-18T13:36:27.469Z,552.00
2023-03-18T13:40:27.612Z,558.00
2023-03-18T13:44:27.873Z,558.00
2023-03-18T13:48:27.879Z,556.00
2023-03-18T13:52:27.987Z,561.00
2023-03-18T13:56:28.125Z,551.00
2023-03-18T14:00:28.268Z,557.00
2023-03-18T14:04:28.348Z,558.00
2023-03-18T14:08:28.466Z,562.00
2023-03-18T14:12:28.638Z,554.00
2023-03-18T14:16:28.832Z,552.00
2023-03-18T14:20:28.959Z,552.00
2023-03-18T14:24:29.102Z,549.00
2023-03-18T14:28:29.355Z,547.00
2023-03-18T14:32:29.508Z,549.00
2023-03-18T14:36:29.730Z,548.00
2023-03-18T14:40:29.922Z,551.00
2023-03-18T14:44:30.095Z,542.00
2023-03-18T14:48:30.344Z,543.00
2023-03-18T14:52:30.537Z,546.00
2023-03-18T14:56:30.498Z,545.00
2023-03-18T15:00:30.497Z,544.00
2023-03-18T15:04:30.442Z,543.00
2023-03-18T15:08:46.333Z,542.00
2023-03-18T15:12:31.384Z,546.00
2023-03-18T15:16:30.352Z,543.00
2023-03-18T15:20:30.566Z,549.00
2023-03-18T15:24:30.946Z,545.00
2023-03-18T15:28:30.861Z,540.00
2023-03-18T15:32:30.911Z,539.00
2023-03-18T15:36:30.877Z,542.00
2023-03-18T15:40:30.868Z,539.00
2023-03-18T15:44:30.839Z,539.00
2023-03-18T15:48:30.875Z,537.00
2023-03-18T15:52:30.802Z,536.00
2023-03-18T15:56:30.808Z,534.00
2023-03-18T16:00:30.814Z,536.00
2023-03-18T16:04:30.824Z,527.00
2023-03-18T16:08:30.801Z,534.00
2023-03-18T16:12:30.835Z,534.00
2023-03-18T16:16:30.851Z,529.00
2023-03-18T16:20:30.837Z,523.00
2023-03-18T16:24:30.861Z,530.00
2023-03-18T16:28:30.874Z,526.00
2023-03-18T16:32:30.887Z,523.00
2023-03-18T16:36:30.927Z,531.00
2023-03-18T16:40:30.915Z,523.00
2023-03-18T16:44:30.924Z,523.00
2023-03-18T16:48:30.975Z,523.00
2023-03-18T16:52:31.016Z,526.00
2023-03-18T16:56:31.057Z,527.00
2023-03-18T17:00:31.048Z,528.00
2023-03-18T17:04:31.164Z,523.00
2023-03-18T17:08:31.174Z,525.00
2023-03-18T17:12:31.184Z,527.00
2023-03-18T17:16:31.324Z,525.00
2023-03-18T17:20:31.345Z,525.00
2023-03-18T17:24:31.456Z,530.00
2023-03-18T17:28:31.481Z,525.00
2023-03-18T17:32:31.561Z,520.00
2023-03-18T17:36:31.560Z,525.00
2023-03-18T17:40:31.631Z,528.00
2023-03-18T17:44:31.715Z,525.00
2023-03-18T17:48:31.769Z,524.00
2023-03-18T17:52:31.840Z,530.00
2023-03-18T17:56:31.932Z,522.00
2023-03-18T18:00:32.013Z,529.00
2023-03-18T18:04:32.119Z,526.00
2023-03-18T18:08:32.202Z,523.00
2023-03-18T18:12:32.279Z,522.00
2023-03-18T18:16:32.426Z,524.00
2023-03-18T18:20:32.492Z,520.00
2023-03-18T18:24:32.571Z,522.00
2023-03-18T18:28:32.744Z,522.00
2023-03-18T18:32:32.853Z,522.00
2023-03-18T18:36:32.998Z,527.00
2023-03-18T18:40:33.184Z,520.00
2023-03-18T18:44:33.325Z,523.00
2023-03-18T18:48:33.415Z,517.00
2023-03-18T18:52:33.593Z,525.00
2023-03-18T18:56:33.782Z,524.00
2023-03-18T19:00:34.084Z,522.00
2023-03-18T19:04:34.080Z,518.00
2023-03-18T19:08:34.288Z,525.00
2023-03-18T19:12:34.457Z,520.00
2023-03-18T19:16:34.653Z,510.00
2023-03-18T19:20:34.776Z,521.00
2023-03-18T19:24:37.201Z,526.00
2023-03-18T19:28:37.040Z,513.00
2023-03-18T19:32:35.326Z,514.00
2023-03-18T19:36:35.525Z,517.00
2023-03-18T19:40:35.646Z,512.00
2023-03-18T19:44:35.878Z,509.00
2023-03-18T19:48:36.043Z,513.00
2023-03-18T19:52:36.254Z,515.00
2023-03-18T19:56:36.428Z,515.00
2023-03-18T20:00:36.657Z,529.00
2023-03-18T20:04:36.916Z,517.00
2023-03-18T20:08:37.034Z,522.00
2023-03-18T20:12:37.041Z,524.00
2023-03-18T20:16:37.025Z,509.00
2023-03-18T20:20:37.009Z,523.00
2023-03-18T20:24:36.922Z,520.00
2023-03-18T20:28:36.914Z,523.00
2023-03-18T20:32:36.931Z,507.00
2023-03-18T20:36:36.830Z,517.00
2023-03-18T20:40:36.820Z,513.00
2023-03-18T20:44:36.761Z,515.00
2023-03-18T20:48:36.734Z,508.00
2023-03-18T20:52:36.828Z,518.00
2023-03-18T20:56:37.065Z,527.00
2023-03-18T21:00:37.279Z,514.00
2023-03-18T21:04:37.242Z,516.00
2023-03-18T21:08:37.225Z,513.00
2023-03-18T21:12:37.141Z,522.00
2023-03-18T21:16:37.899Z,524.00
2023-03-18T21:20:37.096Z,509.00
2023-03-18T21:24:37.069Z,516.00
2023-03-18T21:28:37.031Z,507.00
2023-03-18T21:32:37.006Z,512.00
2023-03-18T21:36:36.911Z,507.00
2023-03-18T21:40:37.087Z,514.00
2023-03-18T21:44:37.062Z,509.00
2023-03-18T21:48:36.974Z,515.00
2023-03-18T21:52:36.956Z,516.00
2023-03-18T21:56:36.912Z,522.00
2023-03-18T22:00:36.902Z,516.00
2023-03-18T22:04:36.886Z,506.00
2023-03-18T22:08:36.805Z,507.00
2023-03-18T22:12:36.807Z,519.00
2023-03-18T22:16:36.754Z,514.00
2023-03-18T22:20:36.722Z,505.00
2023-03-18T22:24:36.867Z,525.00
2023-03-18T22:28:36.984Z,513.00
2023-03-18T22:32:37.222Z,520.00
2023-03-18T22:36:37.156Z,508.00
2023-03-18T22:40:37.184Z,500.00
2023-03-18T22:44:37.323Z,513.00
2023-03-18T22:48:37.494Z,512.00
2023-03-18T22:52:37.731Z,510.00
2023-03-18T22:56:37.771Z,514.00
2023-03-18T23:00:37.836Z,511.00
2023-03-18T23:04:37.907Z,513.00
2023-03-18T23:08:37.888Z,512.00
2023-03-18T23:12:37.835Z,506.00
2023-03-18T23:16:37.926Z,527.00
2023-03-18T23:20:37.845Z,508.00
2023-03-18T23:24:37.884Z,501.00
2023-03-18T23:28:44.445Z,524.00
2023-03-18T23:32:38.866Z,505.00
2023-03-18T23:36:37.814Z,522.00
2023-03-18T23:40:37.775Z,518.00
2023-03-18T23:44:37.719Z,517.00
2023-03-18T23:48:37.739Z,510.00
2023-03-18T23:52:37.638Z,506.00
2023-03-18T23:56:37.646Z,517.00
